LFGJ

Details ICAO LFGJ (DLE)
Name Dole Tavaux
Region France
Timezone Europe/Paris (UTC+2.0)
Plans Departing 190
Arriving 211
Stats Elevation 645 ft / 197 m (AMSL)
Location 47.038900° 5.427260°
Runways 1
Magnetic Variation 2.328° E
Sunrise 2024-04-14 04:52:58 UTC / 2024-04-14 06:52:58 Local
Sunset 2024-04-14 18:26:11 UTC / 2024-04-14 20:26:11 Local
Advertisement - Login to hide

Runways

ID Width Length Bearing (true/mag) Surface Threshold Overrun Markings Lighting
05 148 ft / 45 m 7,306 ft / 2,227 m 54.25° / 51.92° ASPHALT 0 ft / 0 m 0 ft / 0 m PREC-APP EDGE THRESHOLD REIL-OMNI
23 148 ft / 45 m 7,306 ft / 2,227 m 234.27° / 231.94° ASPHALT 0 ft / 0 m 1,214 ft / 370 m PREC-APP EDGE THRESHOLD REIL-OMNI

Approach Navaids

Runway Type Ident Frequency Range Bearing (true/mag) Slope Elevation
05 DME DO 109.35 MHz 18 nm / 33 km - - 690 ft / 210 m (AMSL)
23 GS DO 109.70 MHz 10 nm / 19 km 234.52° / 232.19° 3.00° 643 ft / 196 m (AMSL)
23 LOC-ILS DO 109.70 MHz 18 nm / 33 km 234.34° / 232.01° - 643 ft / 196 m (AMSL)

Map

Weather


0- 5 10 15 20 25 30 35+ Temperature / °C

Clouds and Precipitation
Forecast for 2024-04-14 18:00 UTC. Updated 6 hours ago

Ground ~20,000 ft ~40,000 ft Winds

METAR

LFGJ 142100Z AUTO 00000KT CAVOK 16/12 Q1018

TAF

Not found

Frequencies

Tower 130.77 MHz DOLE TWR
Warning: Do not use this data for real-world aviation or navigation. No guarantee of current accuracy is given.